• Join FlightAware (Why Join?)
  • Login
  • US Flag 
07:01PM EST


 

Airport Tracker/Info


-or-


 

Live Flight TrackerFlight Track Log ✈ AWE1492 ✈ 26-Nov-2011 ✈ KSFO - KPHL

Flight Track Log - Related Links

Times and Time Zones

All times are in EST time to prevent confusion due to time zone crossing. See the AWE1492 flight status page for this flight to view local times or setup timezone preferences in your user account.

Time Position Orientation Groundspeed Altitude Reporting Facility
EST Latitude Longitude Course Direction KTS MPH feet Rate Location/Type
01:19AM 37.7420 -122.3333 180° South  Level FlightAware Approximate
01:23AM 37.6667 -122.3333 360° North 179 206 2,300  Level Northern Cal TRACON
01:24AM 37.7167 -122.3333 332° Northwest 205 236 3,500 840 Climbing Northern Cal TRACON
01:25AM 37.7667 -122.3667 353° North 243 280 4,000 1,140 Climbing Northern Cal TRACON
01:26AM 37.8667 -122.3833 34° Northeast 292 336 6,000 1,680 Climbing Northern Cal TRACON
01:28AM 37.9472 -122.3142 83° East 251 289 8,400 1,680 Climbing Oakland Center
01:29AM 37.9567 -122.2114 83° East 247 284 10,100 1,260 Climbing Oakland Center
01:30AM 37.9683 -122.0958 82° East 275 316 11,000 840 Climbing Oakland Center
01:31AM 37.9819 -121.9722 83° East 320 368 11,800 900 Climbing Oakland Center
01:32AM 37.9956 -121.8328 83° East 366 421 12,900 1,080 Climbing Oakland Center
01:33AM 38.0067 -121.7089 84° East 384 442 14,000 1,140 Climbing Oakland Center
01:34AM 38.0200 -121.5586 84° East 408 470 15,200 1,200 Climbing Oakland Center
01:35AM 38.0333 -121.4086 83° East 426 490 16,500 1,200 Climbing Oakland Center
01:36AM 38.0483 -121.2531 83° East 431 496 17,700 900 Climbing Oakland Center
01:37AM 38.0631 -121.0947 78° East 442 509 18,300 840 Climbing Oakland Center
01:38AM 38.0925 -120.9181 74° East 460 529 19,400 1,080 Climbing Oakland Center
01:39AM 38.1278 -120.7569 77° East 465 535 20,500 1,020 Climbing Oakland Center
01:40AM 38.1564 -120.5931 77° East 471 542 21,500 900 Climbing Oakland Center
01:41AM 38.1872 -120.4264 77° East 471 542 22,400 960 Climbing Oakland Center
01:42AM 38.2175 -120.2544 77° East 477 549 23,500 1,080 Climbing Oakland Center
01:43AM 38.2475 -120.0875 78° East 477 549 24,600 1,080 Climbing Oakland Center
01:44AM 38.2756 -119.9233 77° East 477 549 25,700 1,080 Climbing Oakland Center
01:45AM 38.3050 -119.7561 79° East 477 549 26,800 1,080 Climbing Oakland Center
01:46AM 38.3306 -119.5942 78° East 472 543 27,900 1,020 Climbing Oakland Center
01:47AM 38.3556 -119.4400 78° East 472 543 28,900 540 Climbing Oakland Center
01:48AM 38.3806 -119.2858 77° East 459 528 29,000  Climbing Oakland Center
01:49AM 38.4114 -119.1208 78° East 471 542 29,000  Level Oakland Center
01:50AM 38.4381 -118.9531 78° East 471 542 29,000  Level Oakland Center
01:51AM 38.4664 -118.7853 77° East 476 548 29,000  Level Oakland Center
01:52AM 38.4964 -118.6197 73° East 476 548 29,000  Level Oakland Center
01:53AM 38.5347 -118.4567 74° East 471 542 29,000  Level Oakland Center
01:54AM 38.5728 -118.2906 74° East 477 549 29,000  Level Oakland Center
01:55AM 38.6086 -118.1272 73° East 477 549 29,000  Level Oakland Center
01:56AM 38.6425 -117.9822 75° East 477 549 29,000  Level Oakland Center
01:57AM 38.7006 -117.7100 74° East 479 551 29,000  Level Salt Lake Center
01:58AM 38.7361 -117.5453 75° East 479 551 29,000  Level Salt Lake Center
01:59AM 38.7714 -117.3806 74° East 477 549 29,000  Level Salt Lake Center
02:00AM 38.8075 -117.2167 75° East 476 548 29,000  Level Salt Lake Center
02:01AM 38.8422 -117.0517 75° East 476 548 29,000  Level Salt Lake Center
02:02AM 38.8778 -116.8861 75° East 478 550 29,000  Level Salt Lake Center
02:03AM 38.9119 -116.7214 75° East 476 548 29,000  Level Salt Lake Center
02:04AM 38.9464 -116.5572 75° East 476 548 29,000  Level Salt Lake Center
02:05AM 38.9800 -116.3944 75° East 473 544 29,000  Level Salt Lake Center
02:06AM 39.0131 -116.2303 75° East 473 544 29,000  Level Salt Lake Center
02:07AM 39.0461 -116.0661 75° East 473 544 29,000  Level Salt Lake Center
02:08AM 39.0803 -115.8986 76° East 478 550 29,000  Level Salt Lake Center
02:09AM 39.1131 -115.7308 75° East 482 555 29,000  Level Salt Lake Center
02:10AM 39.1500 -115.5464 76° East 484 557 29,000  Level Salt Lake Center
02:11AM 39.1819 -115.3844 76° East 486 559 29,000  Level Salt Lake Center
02:12AM 39.2133 -115.2222 76° East 487 560 29,000  Level Salt Lake Center
02:13AM 39.2447 -115.0594 76° East 488 562 29,000  Level Salt Lake Center
02:14AM 39.2800 -114.8703 76° East 489 563 29,000  Level Salt Lake Center
02:15AM 39.3114 -114.7056 76° East 491 565 29,100  Climbing Salt Lake Center
02:16AM 39.3419 -114.5414 76° East 489 563 29,000 -60 Descending Salt Lake Center
02:17AM 39.3772 -114.3597 76° East 488 562 29,000  Level Salt Lake Center
02:18AM 39.4100 -114.1864 77° East 488 562 29,000  Level Salt Lake Center
02:19AM 39.4411 -114.0164 77° East 481 554 29,000  Level Salt Lake Center
02:20AM 39.4722 -113.8458 77° East 480 552 29,000  Level Salt Lake Center
02:21AM 39.5033 -113.6750 77° East 480 552 29,000  Level Salt Lake Center
02:22AM 39.5331 -113.5025 77° East 481 554 29,000  Level Salt Lake Center
02:23AM 39.5636 -113.3303 77° East 482 555 29,000  Level Salt Lake Center
02:24AM 39.5883 -113.1925 77° East 483 556 29,000  Level Salt Lake Center
02:25AM 39.6178 -113.0197 78° East 483 556 29,000  Level Salt Lake Center
02:26AM 39.6469 -112.8478 78° East 481 554 29,000  Level Salt Lake Center
02:27AM 39.6756 -112.6783 77° East 477 549 29,000  Level Salt Lake Center
02:28AM 39.7069 -112.4994 78° East 472 543 29,000  Level Salt Lake Center
02:29AM 39.7356 -112.3308 78° East 474 545 29,000  Level Salt Lake Center
02:30AM 39.7642 -112.1594 78° East 479 551 29,000  Level Salt Lake Center
02:31AM 39.7933 -111.9872 78° East 483 556 29,100  Climbing Salt Lake Center
02:32AM 39.8211 -111.8175 79° East 480 552 29,000 -60 Descending Salt Lake Center
02:33AM 39.8469 -111.6472 78° East 478 550 29,000  Level Salt Lake Center
02:34AM 39.8739 -111.4825 78° East 475 547 29,000  Level Salt Lake Center
02:35AM 39.9000 -111.3231 78° East 472 543 29,000  Level Salt Lake Center
02:36AM 39.9292 -111.1375 79° East 470 541 29,000  Level Salt Lake Center
02:37AM 39.9536 -110.9775 79° East 469 540 29,000  Level Salt Lake Center
02:38AM 39.9767 -110.8186 79° East 467 537 29,000  Level Salt Lake Center
02:39AM 40.0006 -110.6581 79° East 469 540 29,000  Level Salt Lake Center
02:40AM 40.0289 -110.4700 79° East 472 543 29,100  Climbing Salt Lake Center
02:41AM 40.0533 -110.3086 79° East 473 544 29,000 -60 Descending Salt Lake Center
02:42AM 40.0767 -110.1478 79° East 472 543 29,000  Level Salt Lake Center
02:43AM 40.1039 -109.9614 80° East 469 540 29,000  Level Salt Lake Center
02:44AM 40.1258 -109.8019 79° East 467 537 29,000  Level Salt Lake Center
02:45AM 40.1489 -109.6406 79° East 469 540 29,000  Level Salt Lake Center
02:46AM 40.1717 -109.4797 80° East 469 540 29,000  Level Salt Lake Center
02:47AM 40.1978 -109.2911 80° East 470 541 29,000  Level Salt Lake Center
02:48AM 40.2200 -109.1292 80° East 471 542 29,000  Level Salt Lake Center
02:49AM 40.2419 -108.9697 80° East 467 537 29,000  Level Salt Lake Center
02:50AM 40.2675 -108.7828 80° East 465 535 29,000  Level Salt Lake Center
02:51AM 40.2892 -108.6219 80° East 466 536 29,000  Level Salt Lake Center
02:52AM 40.3106 -108.4608 81° East 467 537 29,000  Level Salt Lake Center
02:53AM 40.3294 -108.3011 79° East 467 537 29,000  Level Salt Lake Center
02:54AM 40.3367 -108.2522 80° East 465 535 29,000  Level Denver Center
02:55AM 40.3600 -108.0839 80° East 465 535 29,000  Level Denver Center
02:56AM 40.3833 -107.9017 81° East 465 535 29,000  Level Denver Center
02:57AM 40.4039 -107.7358 81° East 465 535 29,000  Level Denver Center
02:58AM 40.4244 -107.5672 81° East 465 535 29,000  Level Denver Center
02:59AM 40.4425 -107.4147 81° East 465 535 29,000  Level Denver Center
03:00AM 40.4647 -107.2294 81° East 465 535 29,000  Level Denver Center
03:01AM 40.4822 -107.0847 81° East 465 535 29,000  Level Denver Center
03:02AM 40.5017 -106.9211 81° East 459 528 29,000  Level Denver Center
03:03AM 40.5211 -106.7519 81° East 465 535 29,000  Level Denver Center
03:04AM 40.5422 -106.5717 82° East 465 535 29,000  Level Denver Center
03:05AM 40.5611 -106.4022 80° East 470 541 29,000  Level Denver Center
03:06AM 40.5817 -106.2408 85° East 462 532 29,000  Level Denver Center
03:07AM 40.5917 -106.0906 82° East 457 526 29,000  Level Denver Center
03:08AM 40.6119 -105.9072 82° East 452 520 29,000  Level Denver Center
03:09AM 40.6297 -105.7428 83° East 457 526 29,000  Level Denver Center
03:10AM 40.6453 -105.5758 81° East 464 534 29,000  Level Denver Center
03:11AM 40.6647 -105.4083 82° East 464 534 29,000  Level Denver Center
03:12AM 40.6817 -105.2439 81° East 464 534 29,000  Level Denver Center
03:13AM 40.7008 -105.0764 83° East 464 534 29,000 600 Level Denver Center
03:14AM 40.7153 -104.9144 82° East 452 520 30,200 960 Climbing Denver Center
03:15AM 40.7300 -104.7717 82° East 444 511 31,000 780 Climbing Denver Center
03:16AM 40.7464 -104.6122 82° East 438 504 31,800 600 Climbing Denver Center
03:17AM 40.7625 -104.4528 82° East 438 504 32,300 600 Climbing Denver Center
03:18AM 40.7783 -104.2961 84° East 432 497 33,000 300 Climbing Denver Center
03:19AM 40.7919 -104.1364 83° East 432 497 33,000  Level Denver Center
03:20AM 40.8089 -103.9575 83° East 437 503 33,000  Level Denver Center
03:21AM 40.8242 -103.8006 85° East 442 509 33,000  Level Denver Center
03:22AM 40.8350 -103.6381 82° East 442 509 33,000  Level Denver Center
03:23AM 40.8519 -103.4836 84° East 437 503 33,000  Level Denver Center
03:24AM 40.8644 -103.3239 83° East 437 503 33,000  Level Denver Center
03:25AM 40.8786 -103.1611 83° East 437 503 33,100  Climbing Denver Center
03:26AM 40.8928 -103.0011 87° East 442 509 33,100 -60 Level Denver Center
03:27AM 40.8986 -102.8522 82° East 456 525 33,000 -60 Descending Denver Center
03:28AM 40.9158 -102.6781 84° East 439 505 33,000  Level Denver Center
03:29AM 40.9272 -102.5208 85° East 433 498 33,000  Level Denver Center
03:30AM 40.9369 -102.3772 84° East 434 499 33,000  Level Denver Center
03:31AM 40.9497 -102.2142 85° East 429 494 33,000  Level Denver Center
03:32AM 40.9619 -102.0372 84° East 434 499 33,000  Level Denver Center
03:33AM 40.9744 -101.8797 84° East 434 499 33,000  Level Denver Center
03:34AM 40.9853 -101.7358 85° East 434 499 33,000  Level Denver Center
03:35AM 40.9953 -101.5728 84° East 434 499 33,000  Level Denver Center
03:36AM 41.0086 -101.3983 85° East 439 505 33,000  Level Denver Center
03:37AM 41.0200 -101.2322 86° East 439 505 33,000  Level Denver Center
03:38AM 41.0281 -101.0883 85° East 444 511 33,000  Level Denver Center
03:39AM 41.0389 -100.9250 85° East 444 511 33,000  Level Denver Center
03:40AM 41.0511 -100.7475 86° East 449 517 33,000  Level Denver Center
03:41AM 41.0597 -100.5869 85° East 443 510 33,000  Level Denver Center
03:42AM 41.0703 -100.4261 85° East 443 510 33,000  Level Denver Center
03:43AM 41.0792 -100.2792 85° East 448 516 33,000  Level Denver Center
03:44AM 41.0892 -100.1183 86° East 443 510 33,000  Level Denver Center
03:45AM 41.0978 -99.9383 85° East 443 510 33,000  Level Denver Center
03:47AM 41.1144 -99.6569 87° East 449 517 33,000  Level Minneapolis Center
03:48AM 41.1225 -99.4786 86° East 449 517 33,000  Level Minneapolis Center
03:49AM 41.1314 -99.3169 86° East 438 504 33,000  Level Minneapolis Center
03:50AM 41.1400 -99.1553 87° East 438 504 33,000  Level Minneapolis Center
03:51AM 41.1453 -99.0097 88° East 438 504 33,000  Level Minneapolis Center
03:52AM 41.1492 -98.8506 85° East 438 504 33,000  Level Minneapolis Center
03:53AM 41.1589 -98.6969 87° East 432 497 33,000 -480 Level Minneapolis Center
03:54AM 41.1644 -98.5350 85° East 432 497 32,100 -1,440 Descending Minneapolis Center
03:55AM 41.1758 -98.3761 87° East 432 497 30,200 -1,560 Descending Minneapolis Center
03:56AM 41.1831 -98.2142 88° East 432 497 29,000 -600 Descending Minneapolis Center
03:57AM 41.1881 -98.0492 88° East 443 510 29,000  Level Minneapolis Center
03:58AM 41.1931 -97.8814 87° East 443 510 29,000  Level Minneapolis Center
03:59AM 41.1994 -97.7164 87° East 443 510 29,100  Climbing Minneapolis Center
04:00AM 41.2058 -97.5544 87° East 443 510 29,000 -60 Descending Minneapolis Center
04:01AM 41.2125 -97.3756 89° East 443 510 29,000  Level Minneapolis Center
04:02AM 41.2136 -97.2242 87° East 443 510 29,000  Level Minneapolis Center
04:03AM 41.2192 -97.0619 88° East 443 510 29,000  Level Minneapolis Center
04:04AM 41.2222 -96.9050 88° East 437 503 29,000  Level Minneapolis Center
04:05AM 41.2269 -96.7453 88° East 437 503 29,000  Level Minneapolis Center
04:06AM 41.2319 -96.5803 88° East 437 503 29,000  Level Minneapolis Center
04:07AM 41.2361 -96.4261 83° East 437 503 29,000  Level Minneapolis Center
04:08AM 41.2511 -96.2614 92° East 437 503 29,000  Level Minneapolis Center
04:09AM 41.2467 -96.1042 86° East 437 503 29,000  Level Minneapolis Center
04:10AM 41.2544 -95.9444 88° East 437 503 29,000  Level Minneapolis Center
04:11AM 41.2581 -95.7847 92° East 437 503 29,000  Level Minneapolis Center
04:12AM 41.2536 -95.6025 89° East 437 503 29,000  Level Minneapolis Center
04:13AM 41.2567 -95.4344 90° East 442 509 29,000  Level Minneapolis Center
04:14AM 41.2575 -95.2664 89° East 442 509 29,000  Level Minneapolis Center
04:15AM 41.2603 -95.0956 89° East 447 514 29,000  Level Minneapolis Center
04:16AM 41.2628 -94.9247 89° East 458 527 29,100  Climbing Minneapolis Center
04:17AM 41.2650 -94.7567 88° East 458 527 29,000 -120 Descending Minneapolis Center
04:18AM 41.2689 -94.5939 90° East 458 527 28,900  Descending Minneapolis Center
04:19AM 41.2686 -94.4231 89° East 453 521 29,000  Climbing Minneapolis Center
04:20AM 41.2706 -94.1383 90° East 460 529 29,000  Level Chicago Center
04:21AM 41.2714 -93.9669 90° East 460 529 29,000  Level Chicago Center
04:22AM 41.2719 -93.7931 89° East 460 529 29,000  Level Chicago Center
04:23AM 41.2744 -93.6189 91° East 465 535 29,000 -60 Level Chicago Center
04:24AM 41.2725 -93.4475 91° East 470 541 28,900  Descending Chicago Center
04:25AM 41.2703 -93.2706 89° East 470 541 29,000 60 Climbing Chicago Center
04:26AM 41.2722 -93.0856 91° East 481 554 29,100  Climbing Chicago Center
04:27AM 41.2694 -92.9111 90° East 481 554 29,000 -60 Descending Chicago Center
04:28AM 41.2689 -92.7261 90° East 481 554 29,000  Level Chicago Center
04:29AM 41.2678 -92.5464 91° East 481 554 29,000  Level Chicago Center
04:30AM 41.2653 -92.4053 91° East 481 554 29,000  Level Chicago Center
04:31AM 41.2622 -92.2036 91° East 481 554 29,000 -60 Level Chicago Center
04:32AM 41.2603 -92.0267 91° East 481 554 28,900  Descending Chicago Center
04:33AM 41.2581 -91.8442 92° East 481 554 29,000  Climbing Chicago Center
04:34AM 41.2536 -91.6617 90° East 481 554 29,000  Level Chicago Center
04:35AM 41.2531 -91.4822 92° East 481 554 29,100  Climbing Chicago Center
04:36AM 41.2478 -91.3053 92° East 481 554 29,000 -60 Descending Chicago Center
04:37AM 41.2425 -91.1256 91° East 481 554 29,000  Level Chicago Center
04:38AM 41.2408 -90.9489 91° East 481 554 29,000  Level Chicago Center
04:39AM 41.2392 -90.7664 93° East 481 554 29,100 360 Climbing Chicago Center
04:40AM 41.2328 -90.5814 92° East 481 554 29,800 600 Climbing Chicago Center
04:41AM 41.2283 -90.3992 93° East 486 559 30,400 720 Climbing Chicago Center
04:42AM 41.2217 -90.2083 92° East 503 579 31,300 720 Climbing Chicago Center
04:43AM 41.2167 -90.0206 92° East 503 579 31,900 1,080 Climbing Chicago Center
04:44AM 41.2114 -89.8356 92° East 503 579 33,500 960 Climbing Chicago Center
04:45AM 41.2058 -89.6508 92° East 503 579 33,900 420 Climbing Chicago Center
04:46AM 41.1997 -89.4631 94° East 503 579 34,400 360 Climbing Chicago Center
04:47AM 41.1894 -89.2589 93° East 498 573 34,700 300 Climbing Chicago Center
04:48AM 41.1828 -89.0742 94° East 498 573 35,000 120 Climbing Chicago Center
04:49AM 41.1717 -88.8839 93° East 498 573 35,000  Level Chicago Center
04:50AM 41.1647 -88.6961 93° East 498 573 35,000  Level Chicago Center
04:51AM 41.1572 -88.5197 94° East 514 592 35,000  Level Chicago Center
04:52AM 41.1472 -88.3269 93° East 519 597 35,000  Level Chicago Center
04:53AM 41.1392 -88.1342 93° East 519 597 35,000  Level Chicago Center
04:54AM 41.1308 -87.9467 93° East 514 592 35,000  Level Chicago Center
04:55AM 41.1219 -87.7567 93° East 514 592 35,000  Level Chicago Center
04:56AM 41.1131 -87.5667 95° East 514 592 35,000  Level Chicago Center
04:57AM 41.1014 -87.3742 94° East 514 592 35,000  Level Chicago Center
04:58AM 41.0917 -87.1844 94° East 519 597 35,000  Level Chicago Center
04:59AM 41.0817 -86.9947 95° East 519 597 35,000  Level Chicago Center
05:00AM 41.0686 -86.7803 94° East 519 597 35,000  Level Chicago Center
05:01AM 41.0581 -86.5933 95° East 522 601 35,000  Level Chicago Center
05:02AM 41.0447 -86.3956 94° East 522 601 35,000  Level Chicago Center
05:03AM 41.0336 -86.2061 95° East 522 601 35,000  Level Chicago Center
05:04AM 41.0197 -86.0169 96° East 522 601 35,000  Level Chicago Center
05:05AM 41.0056 -85.8250 95° East 516 594 35,000  Level Chicago Center
05:06AM 40.9933 -85.6331 95° East 521 600 35,000  Level Chicago Center
05:07AM 40.9806 -85.4383 96° East 521 600 35,000  Level Chicago Center
05:10AM 40.9450 -84.9931 96° East 521 600 35,000  Level Cleveland Center
05:11AM 40.9311 -84.8078 96° East 516 594 35,000  Level Cleveland Center
05:12AM 40.9169 -84.6200 96° East 511 588 35,000  Level Cleveland Center
05:13AM 40.9025 -84.4350 96° East 511 588 35,000  Level Cleveland Center
05:14AM 40.8861 -84.2417 96° East 517 595 35,000  Level Cleveland Center
05:15AM 40.8711 -84.0486 96° East 525 604 35,000  Level Cleveland Center
05:16AM 40.8558 -83.8611 95° East 525 604 35,000  Level Cleveland Center
05:17AM 40.8425 -83.6683 97° East 525 604 35,000 -60 Level Cleveland Center
05:18AM 40.8247 -83.4781 97° East 525 604 34,900 -60 Descending Cleveland Center
05:19AM 40.8083 -83.2908 97° East 520 598 34,900  Level Cleveland Center
05:20AM 40.7914 -83.1172 97° East 525 604 35,000 540 Climbing Cleveland Center
05:21AM 40.7747 -82.9300 97° East 518 596 36,000 480 Climbing Cleveland Center
05:22AM 40.7572 -82.7514 97° East 501 577 36,000  Level Cleveland Center
05:23AM 40.7397 -82.5700 98° East 491 565 36,000  Level Cleveland Center
05:24AM 40.7200 -82.3886 97° East 496 571 36,000  Level Cleveland Center
05:25AM 40.7019 -82.2044 97° East 503 579 36,000  Level Cleveland Center
05:26AM 40.6856 -82.0206 98° East 503 579 36,000  Level Cleveland Center
05:27AM 40.6647 -81.8342 98° East 503 579 36,000  Level Cleveland Center
05:28AM 40.6458 -81.6503 95° East 508 585 36,000  Level Cleveland Center
05:29AM 40.6328 -81.4642 95° East 508 585 36,000  Level Cleveland Center
05:30AM 40.6194 -81.2753 95° East 508 585 36,000  Level Cleveland Center
05:31AM 40.6058 -81.0836 95° East 519 597 36,000  Level Cleveland Center
05:32AM 40.5942 -80.8919 96° East 519 597 36,000  Level Cleveland Center
05:33AM 40.5800 -80.7089 96° East 519 597 36,000  Level Cleveland Center
05:34AM 40.5653 -80.5175 98° East 519 597 36,000  Level Cleveland Center
05:35AM 40.5464 -80.3344 95° East 519 597 36,000  Level Cleveland Center
05:36AM 40.5333 -80.1433 95° East 514 592 36,000  Level Cleveland Center
05:37AM 40.5178 -79.9331 97° East 524 603 36,000  Level Cleveland Center
05:38AM 40.4997 -79.7475 96° East 519 597 36,000  Level Cleveland Center
05:39AM 40.4858 -79.5622 98° East 519 597 36,000  Level Cleveland Center
05:40AM 40.4672 -79.3797 97° East 514 592 36,000 -60 Level Cleveland Center
05:41AM 40.4486 -79.1917 97° East 514 592 35,900 -900 Descending Cleveland Center
05:42AM 40.4317 -79.0092 97° East 514 592 34,300 -1,800 Descending Cleveland Center
05:43AM 40.4142 -78.8214 96° East 514 592 32,400 -1,920 Descending Cleveland Center
05:44AM 40.3986 -78.6392 98° East 514 592 30,500 -1,920 Descending Cleveland Center
05:45AM 40.3789 -78.4544 97° East 514 592 28,600 -1,740 Descending Cleveland Center
05:46AM 40.3522 -78.1769 98° East 500 575 26,100 -1,440 Descending New York Center
05:47AM 40.3339 -78.0033 97° East 490 564 25,000 -600 Descending New York Center
05:48AM 40.3172 -77.8300 97° East 484 557 25,000  Level New York Center
05:49AM 40.3006 -77.6542 98° East 479 551 25,000  Level New York Center
05:50AM 40.2811 -77.4833 98° East 479 551 25,000 -420 Level New York Center
05:51AM 40.2633 -77.3158 99° East 474 545 24,200 -1,080 Descending New York Center
05:52AM 40.2431 -77.1533 98° East 460 529 22,900 -1,200 Descending New York Center
05:53AM 40.2267 -76.9914 98° East 455 524 21,800 -1,140 Descending New York Center
05:54AM 40.2097 -76.8375 98° East 437 503 20,700 -1,200 Descending New York Center
05:55AM 40.1928 -76.6811 99° East 426 490 19,400 -1,260 Descending New York Center
05:56AM 40.1747 -76.5356 98° East 420 483 18,200 -1,200 Descending New York Center
05:57AM 40.1589 -76.3903 98° East 407 468 17,000 -1,380 Descending New York Center
05:58AM 40.1428 -76.2450 99° East 407 468 15,500 -1,500 Descending New York Center
05:59AM 40.1275 -76.1217 100° East 392 451 14,100 -1,440 Descending New York Center
05:59AM 40.1222 -76.0831 100° East 383 441 13,800 -1,800 Descending FAA TRACON SMA TRACON (SMA)
06:00AM 40.1169 -76.0422 98° East 376 433 13,200 -1,800 Descending FAA TRACON SMA TRACON (SMA)
06:00AM 40.1114 -75.9928 98° East 366 421 12,600 -1,680 Descending FAA TRACON SMA TRACON (SMA)
06:00AM 40.1069 -75.9533 99° East 359 413 12,100 -1,200 Descending FAA TRACON SMA TRACON (SMA)
06:01AM 40.1022 -75.9150 96° East 354 407 11,800 -780 Descending FAA TRACON SMA TRACON (SMA)
06:01AM 40.0986 -75.8697 102° East 348 400 11,600 -1,200 Descending FAA TRACON SMA TRACON (SMA)
06:01AM 40.0922 -75.8308 99° East 340 391 11,000 -1,500 Descending FAA TRACON SMA TRACON (SMA)
06:02AM 40.0881 -75.7953 99° East 331 381 10,600 -1,200 Descending FAA TRACON SMA TRACON (SMA)
06:02AM 40.0825 -75.7506 96° East 325 374 10,200 -1,380 Descending FAA TRACON SMA TRACON (SMA)
06:02AM 40.0797 -75.7153 91° East 325 374 9,700 -1,380 Descending FAA TRACON SMA TRACON (SMA)
06:03AM 40.0792 -75.6797 83° East 316 364 9,300 -1,200 Descending FAA TRACON SMA TRACON (SMA)
06:03AM 40.0831 -75.6358 84° East 314 361 8,900 -1,740 Descending FAA TRACON SMA TRACON (SMA)
06:03AM 40.0858 -75.6022 84° East 315 362 8,200 -1,500 Descending FAA TRACON SMA TRACON (SMA)
06:04AM 40.0889 -75.5658 84° East 316 364 7,900 -1,080 Descending FAA TRACON SMA TRACON (SMA)
06:04AM 40.0914 -75.5356 83° East 312 359 7,500 -1,680 Descending FAA TRACON SMA TRACON (SMA)
06:04AM 40.0956 -75.4889 82° East 310 357 6,800 -1,680 Descending FAA TRACON SMA TRACON (SMA)
06:05AM 40.0992 -75.4556 84° East 309 356 6,400 -1,380 Descending FAA TRACON SMA TRACON (SMA)
06:05AM 40.1017 -75.4222 83° East 310 357 5,900 -1,800 Descending FAA TRACON SMA TRACON (SMA)
06:05AM 40.1061 -75.3772 92° East 308 354 5,200 -1,680 Descending FAA TRACON SMA TRACON (SMA)
06:06AM 40.1050 -75.3433 97° East 311 358 4,800 -1,200 Descending FAA TRACON SMA TRACON (SMA)
06:06AM 40.1022 -75.3133 112° Southeast 291 335 4,400 -1,080 Descending FAA TRACON SMA TRACON (SMA)
06:06AM 40.0897 -75.2739 114° Southeast 282 325 4,100 -600 Descending FAA TRACON SMA TRACON (SMA)
06:07AM 40.0803 -75.2467 114° Southeast 269 310 4,000 -600 Descending FAA TRACON SMA TRACON (SMA)
06:07AM 40.0689 -75.2136 112° Southeast 262 302 3,700 -900 Descending FAA TRACON SMA TRACON (SMA)
06:07AM 40.0606 -75.1864 132° Southeast 250 288 3,400 -900 Descending FAA TRACON SMA TRACON (SMA)
06:08AM 40.0472 -75.1672 164° South 226 260 3,100 -780 Descending FAA TRACON SMA TRACON (SMA)
06:08AM 40.0333 -75.1619 160° South 200 230 2,900 -900 Descending FAA TRACON SMA TRACON (SMA)
06:08AM 40.0128 -75.1519 159° South 188 216 2,500 -1,200 Descending FAA TRACON SMA TRACON (SMA)
06:09AM 39.9975 -75.1442 195° South 187 215 2,100 -480 Descending FAA TRACON SMA TRACON (SMA)
06:12AM 39.8850 -75.1833 180° South 129 148 800 -420 Descending New York Center
06:12AM 39.8833 -75.1833 253° West 140 161 800 -540 Level Philadelphia TRACON
06:12AM 39.8825 -75.1869 254° West 133 153 700 -720 Descending FAA TRACON SMA TRACON (SMA)
06:13AM 39.8789 -75.2036 257° West 136 157 500 -780 Descending FAA TRACON SMA TRACON (SMA)
06:13AM 39.8761 -75.2189 253° West 139 160 200 -600 Descending FAA TRACON SMA TRACON (SMA)
06:13AM 39.8753 -75.2225 360° North 139 160 100 -180 Descending FAA TRACON SMA TRACON (SMA)
06:14AM 39.8753 -75.2225 360° North 139 160 100  Level FAA TRACON SMA TRACON (SMA)